Time;durP1;ratioP1;P1;durP2;ratioP2;P2;SDS_P1;SDS_P2;PMS_P1;PMS_P2;Temp;Humidity;BMP_temperature;BMP_pressure;BME280_temperature;BME280_humidity;BME280_pressure;Samples;Min_cycle;Max_cycle;Signal;HPM_P1;HPM_P2
2022/06/06 00:01:13;;;;;;;50.38;34.83;;;;;;;14.44;100.00;101327.81;5054602;28;20398;-83
2022/06/06 00:03:40;;;;;;;56.25;37.05;;;;;;;14.38;100.00;101320.31;5051953;28;20025;-84
2022/06/06 00:06:09;;;;;;;57.78;35.30;;;;;;;14.38;99.81;101321.16;5056803;28;20031;-84
2022/06/06 00:08:34;;;;;;;58.47;35.63;;;;;;;14.38;100.00;101329.16;5054378;28;20034;-83
2022/06/06 00:11:00;;;;;;;57.95;36.10;;;;;;;14.37;100.00;101324.81;5053870;28;20020;-83
2022/06/06 00:13:25;;;;;;;53.47;33.13;;;;;;;14.35;99.81;101329.44;5059139;28;20116;-83
2022/06/06 00:15:51;;;;;;;56.90;34.95;;;;;;;14.35;100.00;101328.59;5067566;28;20025;-82
2022/06/06 00:18:16;;;;;;;56.55;33.00;;;;;;;14.36;100.00;101325.78;5074724;28;20025;-82
2022/06/06 00:20:41;;;;;;;51.50;33.03;;;;;;;14.37;99.91;101330.16;5065005;28;20083;-83
2022/06/06 00:23:07;;;;;;;50.80;31.77;;;;;;;14.38;99.72;101323.81;5057537;28;20482;-83
2022/06/06 00:25:32;;;;;;;47.85;32.53;;;;;;;14.40;99.46;101321.03;5072377;28;20044;-83
2022/06/06 00:27:57;;;;;;;55.92;33.10;;;;;;;14.36;99.65;101312.44;5048339;28;20035;-82
2022/06/06 00:30:23;;;;;;;54.85;30.90;;;;;;;14.37;99.58;101313.25;5047030;28;20116;-82
2022/06/06 00:35:32;;;;;;;53.42;32.30;;;;;;;14.35;99.72;101304.53;5073681;28;20079;-82
2022/06/06 00:37:57;;;;;;;51.42;30.55;;;;;;;14.36;99.58;101306.25;5055169;28;20808;-82
2022/06/06 00:40:25;;;;;;;54.30;31.92;;;;;;;14.36;100.00;101307.09;5054177;28;20028;-82
2022/06/06 00:42:51;;;;;;;51.05;31.67;;;;;;;14.37;99.89;101299.91;5046777;28;20055;-82
2022/06/06 00:45:25;;;;;;;51.92;32.13;;;;;;;14.40;100.00;101305.00;5074281;28;20068;-83
2022/06/06 00:48:06;;;;;;;49.92;31.58;;;;;;;14.38;99.54;101296.25;5055521;28;20032;-83
2022/06/06 00:51:00;;;;;;;53.80;32.42;;;;;;;14.43;99.39;101299.38;5054344;28;20497;-82
2022/06/06 00:53:37;;;;;;;51.33;32.13;;;;;;;14.38;99.77;101299.78;5044093;28;20075;-82
2022/06/06 00:56:10;;;;;;;49.20;31.40;;;;;;;14.34;98.99;101290.34;5055362;28;20054;-83
2022/06/06 00:58:37;;;;;;;50.55;32.00;;;;;;;14.37;99.58;101294.56;5065455;28;20035;-82
2022/06/06 01:01:03;;;;;;;52.72;32.55;;;;;;;14.36;99.66;101298.22;5057956;28;20024;-82
2022/06/06 01:03:29;;;;;;;50.13;31.92;;;;;;;14.36;99.18;101290.22;5062603;28;20029;-82
2022/06/06 01:05:57;;;;;;;61.38;35.60;;;;;;;14.32;99.04;101294.09;5061661;28;20432;-84
2022/06/06 01:08:24;;;;;;;50.63;35.08;;;;;;;14.34;99.73;101294.81;5063570;28;20033;-82
2022/06/06 01:10:49;;;;;;;56.55;33.88;;;;;;;14.33;99.42;101301.16;5053260;28;20409;-83
2022/06/06 01:13:17;;;;;;;58.35;36.58;;;;;;;14.35;98.96;101304.53;5054472;28;20033;-83
2022/06/06 01:15:59;;;;;;;60.22;37.70;;;;;;;14.35;99.14;101299.19;5053379;28;20029;-83
2022/06/06 01:19:02;;;;;;;61.28;37.78;;;;;;;14.38;99.40;101302.44;5053567;28;20050;-82
2022/06/06 01:22:01;;;;;;;62.45;38.95;;;;;;;14.37;98.98;101300.78;5031608;28;20441;-83
2022/06/06 01:24:45;;;;;;;72.93;41.33;;;;;;;14.34;100.00;101294.81;5047772;28;20033;-83
2022/06/06 01:27:19;;;;;;;63.95;39.85;;;;;;;14.33;99.49;101287.81;5041913;28;20021;-82
2022/06/06 01:29:49;;;;;;;60.47;38.80;;;;;;;14.32;99.54;101297.66;5057639;28;20086;-84
2022/06/06 01:32:19;;;;;;;57.97;39.70;;;;;;;14.32;99.64;101296.78;5053091;28;20086;-83
2022/06/06 01:34:48;;;;;;;61.42;40.47;;;;;;;14.32;99.84;101296.78;5069271;28;20021;-84
2022/06/06 01:37:24;;;;;;;58.75;40.28;;;;;;;14.35;99.60;101291.19;5073877;28;20032;-83
2022/06/06 01:39:50;;;;;;;61.70;38.95;;;;;;;14.31;100.00;101293.28;5060358;28;20029;-83
2022/06/06 01:42:46;;;;;;;58.35;38.95;;;;;;;14.33;100.00;101301.16;5058721;28;20024;-83
2022/06/06 01:45:43;;;;;;;64.53;41.05;;;;;;;14.37;100.00;101297.22;5046496;28;20041;-82
2022/06/06 01:48:13;;;;;;;62.25;40.05;;;;;;;14.34;100.00;101300.16;5041402;28;20511;-83
2022/06/06 01:50:41;;;;;;;60.65;37.97;;;;;;;14.31;100.00;101295.94;5054186;28;20029;-83
2022/06/06 01:53:10;;;;;;;52.00;36.00;;;;;;;14.32;100.00;101297.66;5049422;28;20028;-83
2022/06/06 01:55:38;;;;;;;58.17;36.72;;;;;;;14.30;100.00;101293.41;5052857;28;20040;-81
2022/06/06 01:58:08;;;;;;;53.75;34.13;;;;;;;14.32;100.00;101297.66;5054161;28;20025;-81
2022/06/06 02:00:36;;;;;;;55.67;35.63;;;;;;;14.33;100.00;101287.81;5067244;28;20116;-84
2022/06/06 02:03:02;;;;;;;49.63;33.65;;;;;;;14.31;100.00;101287.09;5069663;28;20203;-82
2022/06/06 02:05:28;;;;;;;49.65;32.08;;;;;;;14.31;100.00;101282.59;5055907;28;20099;-82
2022/06/06 02:07:53;;;;;;;49.17;33.33;;;;;;;14.30;100.00;101275.53;5059688;28;20037;-82
2022/06/06 02:10:20;;;;;;;49.63;32.20;;;;;;;14.29;100.00;101264.97;5065804;28;20422;-82
2022/06/06 02:12:46;;;;;;;51.03;31.73;;;;;;;14.27;100.00;101258.91;5067634;28;20033;-83
2022/06/06 02:15:14;;;;;;;48.72;30.55;;;;;;;14.26;100.00;101271.44;5053647;28;20036;-82
2022/06/06 02:17:40;;;;;;;46.65;31.40;;;;;;;14.25;100.00;101273.28;5051098;28;20029;-82
2022/06/06 02:20:07;;;;;;;47.00;30.27;;;;;;;14.24;100.00;101270.75;5053116;28;20025;-82
2022/06/06 02:22:33;;;;;;;47.25;29.48;;;;;;;14.27;100.00;101278.47;5063245;28;20032;-82
2022/06/06 02:24:58;;;;;;;46.83;29.88;;;;;;;14.29;100.00;101275.66;5055292;28;20021;-82
2022/06/06 02:27:24;;;;;;;44.97;29.85;;;;;;;14.28;100.00;101284.69;5056168;28;20102;-82
2022/06/06 02:29:50;;;;;;;45.75;29.63;;;;;;;14.27;100.00;101283.81;5063617;28;20481;-82
2022/06/06 02:32:15;;;;;;;42.55;30.02;;;;;;;14.28;100.00;101282.00;5066140;28;20028;-81
2022/06/06 02:34:40;;;;;;;47.33;30.67;;;;;;;14.25;100.00;101283.09;5059577;28;20060;-82
2022/06/06 02:37:06;;;;;;;46.88;32.40;;;;;;;14.24;100.00;101287.59;5067689;28;20492;-82
2022/06/06 02:39:32;;;;;;;50.55;32.80;;;;;;;14.24;100.00;101279.59;5054641;28;20037;-82
2022/06/06 02:41:57;;;;;;;48.33;32.00;;;;;;;14.23;100.00;101283.22;5057421;28;20044;-81
2022/06/06 02:44:23;;;;;;;50.15;33.30;;;;;;;14.22;100.00;101273.53;5065454;28;20068;-82
2022/06/06 02:46:49;;;;;;;51.65;32.95;;;;;;;14.20;100.00;101271.97;5053984;28;20071;-82
2022/06/06 02:49:15;;;;;;;50.90;31.58;;;;;;;14.23;100.00;101272.53;5062473;28;20043;-82
2022/06/06 02:51:40;;;;;;;51.08;31.83;;;;;;;14.24;100.00;101276.91;5058784;28;20790;-83
2022/06/06 02:54:06;;;;;;;48.45;29.90;;;;;;;14.23;100.00;101272.53;5060936;28;20140;-82
2022/06/06 02:56:34;;;;;;;49.40;30.88;;;;;;;14.21;100.00;101271.00;5052514;28;20052;-82
2022/06/06 02:59:04;;;;;;;49.30;31.45;;;;;;;14.19;100.00;101273.78;5051617;28;20473;-82
2022/06/06 03:01:30;;;;;;;52.00;30.83;;;;;;;14.20;99.84;101270.13;5053382;28;20033;-82
2022/06/06 03:03:55;;;;;;;48.20;31.05;;;;;;;14.16;99.73;101274.06;5056296;28;20033;-82
2022/06/06 03:06:47;;;;;;;48.38;31.40;;;;;;;14.20;99.86;101274.63;5067094;28;20025;-82
2022/06/06 03:09:36;;;;;;;49.22;31.02;;;;;;;14.17;99.70;101269.53;5059652;28;20067;-82
2022/06/06 03:12:18;;;;;;;48.22;30.92;;;;;;;14.15;99.61;101279.53;5076443;28;20086;-82
2022/06/06 03:15:06;;;;;;;52.38;32.58;;;;;;;14.15;99.14;101276.84;5075444;28;20456;-82
2022/06/06 03:20:46;;;;;;;48.08;30.83;;;;;;;14.10;99.53;101274.56;5074454;28;20123;-82
2022/06/06 03:23:26;;;;;;;53.42;33.08;;;;;;;14.09;99.11;101278.22;5036197;28;20053;-82
2022/06/06 03:26:19;;;;;;;47.10;30.27;;;;;;;14.11;98.82;101286.94;5045560;28;20045;-83
2022/06/06 03:29:13;;;;;;;45.75;29.48;;;;;;;14.09;98.44;101285.38;5054927;28;20037;-82
2022/06/06 03:31:46;;;;;;;46.55;29.33;;;;;;;14.05;98.19;101288.34;5046676;28;20473;-82
2022/06/06 03:34:27;;;;;;;44.83;29.98;;;;;;;14.03;98.78;101286.75;5055571;28;20431;-82
2022/06/06 03:37:17;;;;;;;43.95;29.52;;;;;;;14.03;98.02;101286.75;5044037;28;20053;-81
2022/06/06 03:39:50;;;;;;;;;;;;;;;14.09;97.16;101286.25;5057227;28;20032;-81
2022/06/06 03:42:39;;;;;;;42.70;27.23;;;;;;;14.00;97.13;101282.50;5059313;28;20281;-83
2022/06/06 03:45:25;;;;;;;39.58;26.92;;;;;;;13.95;96.74;101283.88;5071728;28;20389;-83
2022/06/06 03:48:11;;;;;;;41.53;25.73;;;;;;;13.91;96.43;101295.81;5063332;28;20035;-82
2022/06/06 03:50:48;;;;;;;37.92;25.42;;;;;;;13.85;97.14;101294.47;5053636;28;20036;-82
2022/06/06 03:53:22;;;;;;;37.58;25.65;;;;;;;13.80;97.07;101294.84;5055162;28;20035;-82
2022/06/06 03:56:21;;;;;;;38.28;24.10;;;;;;;13.75;96.45;101294.38;5063526;28;20056;-82
2022/06/06 03:58:48;;;;;;;34.70;23.83;;;;;;;13.72;95.78;101294.63;5068173;28;20029;-83
2022/06/06 04:01:14;;;;;;;38.55;24.40;;;;;;;13.67;96.51;101297.72;5055480;28;20033;-82
2022/06/06 04:03:43;;;;;;;37.97;23.27;;;;;;;13.63;95.88;101301.59;5069793;28;20062;-82
2022/06/06 04:06:09;;;;;;;39.13;23.13;;;;;;;13.60;95.79;101307.19;5066872;28;20056;-82
2022/06/06 04:08:35;;;;;;;33.85;22.45;;;;;;;13.55;95.84;101304.03;5061427;28;20037;-82
2022/06/06 04:11:16;;;;;;;36.65;22.83;;;;;;;13.55;95.95;101308.53;5057557;28;20029;-82
2022/06/06 04:13:55;;;;;;;34.83;21.88;;;;;;;13.47;95.78;101317.16;5059018;28;20159;-82
2022/06/06 04:16:46;;;;;;;35.80;22.23;;;;;;;13.46;96.17;101318.16;5077542;28;20032;-82
2022/06/06 04:19:14;;;;;;;31.63;21.10;;;;;;;13.42;95.42;101319.34;5071124;28;20040;-82
2022/06/06 04:22:13;;;;;;;29.20;20.70;;;;;;;13.42;95.83;101322.03;5064606;28;20048;-82
2022/06/06 04:24:57;;;;;;;30.95;20.52;;;;;;;13.38;96.14;101324.09;5046256;28;20033;-81
2022/06/06 04:27:47;;;;;;;32.03;20.80;;;;;;;13.41;96.50;101326.53;5056638;28;20060;-82
2022/06/06 04:30:31;;;;;;;32.83;19.88;;;;;;;13.36;96.43;101317.22;5063806;28;20065;-82
2022/06/06 04:33:13;;;;;;;30.13;20.17;;;;;;;13.36;96.43;101325.22;5049745;28;20029;-81
2022/06/06 04:36:01;;;;;;;28.95;19.10;;;;;;;13.37;95.24;101322.38;5073178;28;20032;-82
2022/06/06 04:39:04;;;;;;;24.90;18.13;;;;;;;13.38;93.92;101324.09;5070632;28;20028;-83
2022/06/06 04:41:39;;;;;;;26.38;17.25;;;;;;;13.30;94.26;101326.50;5066373;28;20056;-82
2022/06/06 04:44:16;;;;;;;23.90;16.98;;;;;;;13.29;94.96;101331.00;5078202;28;20032;-81
2022/06/06 04:46:51;;;;;;;24.05;17.23;;;;;;;13.30;93.19;101326.50;5064059;28;20025;-83
2022/06/06 04:49:16;;;;;;;26.38;18.73;;;;;;;13.28;93.70;101328.44;5077172;28;20028;-83
2022/06/06 04:51:44;;;;;;;23.73;18.77;;;;;;;13.25;91.89;101340.19;5068015;28;20059;-82
2022/06/06 04:54:14;;;;;;;26.92;19.77;;;;;;;13.27;92.45;101332.94;5066277;28;20032;-82
2022/06/06 04:56:42;;;;;;;25.48;19.88;;;;;;;13.25;93.05;101331.34;5062019;28;20428;-82
2022/06/06 04:59:10;;;;;;;24.70;19.27;;;;;;;13.26;91.55;101333.06;5066044;28;20031;-82
2022/06/06 05:01:38;;;;;;;27.07;20.43;;;;;;;13.25;91.42;101316.19;5063953;28;20029;-83
2022/06/06 05:04:03;;;;;;;26.77;21.77;;;;;;;13.26;91.99;101325.06;5072421;28;20021;-82
2022/06/06 05:07:02;;;;;;;24.02;20.85;;;;;;;13.30;92.21;101330.00;5060344;28;20036;-82
2022/06/06 05:09:30;;;;;;;;;;;;;;;13.37;91.92;101325.06;5063861;28;20440;-82
2022/06/06 05:12:34;;;;;;;27.23;21.65;;;;;;;13.31;90.96;101333.53;5071649;28;19919;-82
2022/06/06 05:15:27;;;;;;;28.20;22.55;;;;;;;13.31;90.95;101330.88;5031427;28;20116;-82
2022/06/06 05:18:16;;;;;;;25.48;21.35;;;;;;;13.32;91.19;101333.47;5052925;28;20026;-82
2022/06/06 05:21:00;;;;;;;28.20;23.55;;;;;;;13.33;91.04;101331.63;5055286;28;20055;-82
2022/06/06 05:23:40;;;;;;;27.65;22.13;;;;;;;13.39;91.38;101333.81;5058034;28;20021;-82
2022/06/06 05:26:24;;;;;;;25.85;21.42;;;;;;;13.44;90.96;101336.94;5060618;28;20441;-82
2022/06/06 05:29:23;;;;;;;22.63;19.35;;;;;;;13.55;90.49;101337.91;5072794;28;20087;-83
2022/06/06 05:32:09;;;;;;;22.45;19.98;;;;;;;13.65;90.11;101341.50;5059305;28;20481;-83
2022/06/06 05:34:40;;;;;;;24.05;20.15;;;;;;;13.77;89.77;101336.97;5064989;28;20020;-83
2022/06/06 05:37:23;;;;;;;20.20;17.88;;;;;;;13.87;88.37;101332.56;5082712;28;20031;-82
2022/06/06 05:40:00;;;;;;;21.30;18.48;;;;;;;13.97;88.96;101332.66;5094847;28;20040;-83
2022/06/06 05:42:36;;;;;;;19.23;16.23;;;;;;;13.96;87.06;101333.66;5072684;28;20036;-83
2022/06/06 05:45:27;;;;;;;20.42;16.60;;;;;;;13.91;87.17;101342.03;5064531;28;20021;-83
2022/06/06 05:48:10;;;;;;;18.38;16.27;;;;;;;13.94;87.54;101341.78;5065986;28;20095;-82
2022/06/06 05:50:59;;;;;;;20.45;16.00;;;;;;;13.92;85.79;101346.38;5060457;28;20017;-83
2022/06/06 05:53:36;;;;;;;21.92;16.45;;;;;;;13.96;86.02;101336.31;5061586;28;20021;-82
2022/06/06 05:56:23;;;;;;;17.50;15.68;;;;;;;14.07;86.96;101342.47;5070546;28;20039;-83
2022/06/06 05:58:54;;;;;;;18.17;16.08;;;;;;;14.22;86.22;101343.00;5049033;28;20481;-84
2022/06/06 06:01:19;;;;;;;21.35;15.60;;;;;;;14.27;84.61;101334.56;5063945;28;20032;-81
2022/06/06 06:04:20;;;;;;;19.60;15.27;;;;;;;14.40;85.86;101337.91;5070094;28;20052;-82
2022/06/06 06:07:16;;;;;;;18.58;15.38;;;;;;;14.47;84.39;101346.28;5038895;28;20315;-81
2022/06/06 06:10:11;;;;;;;18.83;14.57;;;;;;;14.61;84.29;101340.59;5065338;28;20390;-81
2022/06/06 06:12:51;;;;;;;17.30;14.82;;;;;;;14.83;83.74;101345.94;5050274;28;20067;-81
2022/06/06 06:15:40;;;;;;;15.85;12.60;;;;;;;15.00;83.74;101339.94;5058472;28;20036;-81
2022/06/06 06:18:22;;;;;;;16.48;11.27;;;;;;;15.24;83.05;101350.34;5038000;28;20546;-82
2022/06/06 06:20:53;;;;;;;11.43;9.07;;;;;;;15.37;80.08;101347.44;5037971;28;20048;-82
2022/06/06 06:23:25;;;;;;;10.10;8.98;;;;;;;15.51;81.39;101355.06;5038162;28;20080;-82
2022/06/06 06:25:52;;;;;;;11.77;8.07;;;;;;;15.69;79.69;101346.38;5043741;28;20041;-81
2022/06/06 06:28:18;;;;;;;9.77;7.20;;;;;;;15.87;77.53;101351.91;5056848;28;20473;-81
2022/06/06 06:30:47;;;;;;;8.20;6.18;;;;;;;15.98;75.69;101364.31;5057089;28;20044;-82
2022/06/06 06:33:24;;;;;;;7.07;5.63;;;;;;;16.05;76.48;101369.00;5081058;28;20095;-81
2022/06/06 06:36:11;;;;;;;10.07;4.80;;;;;;;16.22;76.89;101370.13;5071975;28;20357;-81
2022/06/06 06:39:00;;;;;;;7.70;4.72;;;;;;;16.43;76.43;101367.25;5035926;28;20036;-81
2022/06/06 06:41:38;;;;;;;7.78;4.35;;;;;;;16.62;73.92;101366.41;5049359;28;20045;-82
2022/06/06 06:44:08;;;;;;;5.38;3.88;;;;;;;16.73;74.10;101361.84;5066777;28;20017;-81
2022/06/06 06:46:41;;;;;;;6.45;3.80;;;;;;;16.87;71.07;101368.59;5058561;28;20064;-81
2022/06/06 06:49:25;;;;;;;7.43;3.50;;;;;;;16.83;72.28;101378.75;5055435;28;20021;-81
2022/06/06 06:52:02;;;;;;;7.00;3.50;;;;;;;16.95;71.48;101385.69;5054754;28;20047;-82
2022/06/06 06:54:27;;;;;;;5.57;3.00;;;;;;;17.03;69.82;101384.94;5062706;28;20033;-81
2022/06/06 06:57:21;;;;;;;7.07;2.80;;;;;;;17.25;71.25;101388.25;5055040;28;20033;-81
2022/06/06 06:59:57;;;;;;;3.45;2.15;;;;;;;17.55;71.55;101381.72;5054081;28;20037;-81
2022/06/06 07:08:59;;;;;;;3.88;2.10;;;;;;;18.18;64.28;101380.91;5054271;28;20036;-81
2022/06/06 07:11:48;;;;;;;5.10;2.17;;;;;;;18.36;63.50;101372.00;5053191;28;20033;-81
2022/06/06 07:14:13;;;;;;;1.90;1.70;;;;;;;18.40;61.91;101378.72;5033114;28;20047;-82
2022/06/06 07:16:40;;;;;;;2.07;1.83;;;;;;;18.65;61.99;101383.31;5065736;28;20028;-82
2022/06/06 07:19:16;;;;;;;4.47;1.80;;;;;;;18.90;63.09;101382.63;5074116;28;20310;-82
2022/06/06 07:21:43;;;;;;;5.03;2.00;;;;;;;18.84;58.96;101384.97;5060866;28;20071;-81
2022/06/06 07:24:11;;;;;;;4.88;1.70;;;;;;;18.77;59.16;101388.41;5042183;28;20029;-82
2022/06/06 07:26:42;;;;;;;3.92;1.80;;;;;;;18.86;60.65;101384.81;5058403;28;20112;-83
2022/06/06 07:29:13;;;;;;;4.45;1.80;;;;;;;19.04;60.46;101384.75;5052030;28;20028;-81
2022/06/06 07:32:12;;;;;;;4.47;1.70;;;;;;;19.07;61.77;101386.25;5057373;28;20037;-81
2022/06/06 07:35:06;;;;;;;3.22;1.73;;;;;;;19.20;60.86;101386.66;5057234;28;20111;-81
2022/06/06 07:37:59;;;;;;;4.50;1.83;;;;;;;19.47;62.15;101388.31;5058540;28;20036;-81
2022/06/06 07:40:27;;;;;;;4.00;1.65;;;;;;;19.55;58.83;101391.03;5045722;28;20025;-81
2022/06/06 07:43:39;;;;;;;3.55;1.42;;;;;;;19.57;57.95;101393.56;5070365;28;20040;-82
2022/06/06 07:46:52;;;;;;;5.88;1.40;;;;;;;19.56;60.96;101398.09;5063027;28;20037;-81
2022/06/06 07:49:27;;;;;;;3.85;1.48;;;;;;;19.45;58.84;101395.72;5016046;28;20034;-81
2022/06/06 07:52:37;;;;;;;3.53;1.30;;;;;;;19.42;60.28;101401.44;5051612;28;20032;-82
2022/06/06 07:55:07;;;;;;;2.65;1.58;;;;;;;19.25;56.97;101395.09;5047888;28;20036;-80
2022/06/06 07:57:51;;;;;;;2.20;1.45;;;;;;;19.26;58.99;101398.66;5077685;28;20064;-79
2022/06/06 08:00:25;;;;;;;3.03;1.48;;;;;;;19.39;57.73;101389.13;5076072;28;20036;-79
2022/06/06 08:03:07;;;;;;;5.80;1.70;;;;;;;19.66;59.48;101395.28;5038150;28;20034;-79
2022/06/06 08:05:55;;;;;;;2.05;1.30;;;;;;;19.89;57.60;101392.84;5067483;28;20469;-80
2022/06/06 08:08:40;;;;;;;2.63;1.50;;;;;;;19.99;56.16;101391.84;5067018;28;20043;-80
2022/06/06 08:11:19;;;;;;;4.88;1.48;;;;;;;19.94;56.94;101395.88;5056961;28;20033;-80
2022/06/06 08:13:55;;;;;;;7.85;1.80;;;;;;;19.77;57.74;101394.16;5056975;28;20427;-79
2022/06/06 08:16:43;;;;;;;3.60;1.60;;;;;;;19.67;57.27;101391.59;5040982;28;20051;-80
2022/06/06 08:19:42;;;;;;;2.67;1.00;;;;;;;19.42;57.27;101396.03;5056913;28;20029;-80
2022/06/06 08:22:08;;;;;;;;;;;;;;;19.63;59.98;101392.91;5057265;28;20061;-78
2022/06/06 08:24:39;;;;;;;3.30;1.23;;;;;;;19.14;54.94;101392.72;5057264;28;19912;-78
2022/06/06 08:27:12;;;;;;;3.97;1.40;;;;;;;19.02;58.62;101381.38;5058555;28;20551;-80
2022/06/06 08:29:40;;;;;;;2.25;1.30;;;;;;;18.88;58.07;101380.09;5059399;28;20086;-81
2022/06/06 08:32:07;;;;;;;4.55;1.20;;;;;;;18.89;57.41;101391.75;5050636;28;20048;-82
2022/06/06 08:34:33;;;;;;;4.68;1.55;;;;;;;19.00;59.26;101380.69;5051353;28;20116;-81
2022/06/06 08:37:17;;;;;;;2.25;1.45;;;;;;;18.98;57.00;101377.31;5055256;28;20025;-81
2022/06/06 08:39:50;;;;;;;2.03;1.20;;;;;;;19.01;58.42;101382.38;5065941;28;20082;-81
2022/06/06 08:42:42;;;;;;;2.30;1.20;;;;;;;18.90;58.27;101370.06;5055344;28;20065;-81
2022/06/06 08:45:26;;;;;;;5.10;1.60;;;;;;;18.89;59.09;101376.44;5069882;28;20116;-81
2022/06/06 08:48:02;;;;;;;4.72;1.30;;;;;;;18.75;59.28;101371.59;5041529;28;20036;-81
2022/06/06 08:50:45;;;;;;;2.97;1.50;;;;;;;18.86;58.75;101363.28;5035406;28;20033;-81
2022/06/06 08:53:36;;;;;;;5.53;3.28;;;;;;;18.83;59.15;101377.06;5033973;28;20052;-81
2022/06/06 08:56:44;;;;;;;6.80;3.80;;;;;;;18.76;57.94;101363.34;5043713;28;20478;-81
2022/06/06 08:59:39;;;;;;;;;;;;;;;;;;;;;
2022/06/06 09:02:34;;;;;;;6.85;3.35;;;;;;;18.92;58.86;101370.72;5055002;28;20039;-81
2022/06/06 09:05:06;;;;;;;3.92;2.42;;;;;;;18.96;57.06;101371.25;5043542;28;20087;-81
2022/06/06 09:07:46;;;;;;;5.00;2.70;;;;;;;19.06;59.33;101366.59;5040469;28;20037;-79
2022/06/06 09:10:22;;;;;;;2.95;2.47;;;;;;;19.21;59.25;101369.53;5055179;28;20432;-81
2022/06/06 09:13:06;;;;;;;5.00;2.90;;;;;;;19.09;57.18;101368.13;5070289;28;20081;-80
2022/06/06 09:16:16;;;;;;;5.25;2.70;;;;;;;19.03;58.35;101369.59;5066607;28;20040;-79
2022/06/06 09:19:06;;;;;;;4.95;2.50;;;;;;;18.68;57.10;101374.06;5056267;28;20393;-80
2022/06/06 09:21:40;;;;;;;5.05;2.05;;;;;;;18.57;56.84;101374.31;5049076;28;20123;-80
2022/06/06 09:24:30;;;;;;;2.88;1.73;;;;;;;18.46;57.83;101367.34;5061854;28;20089;-80
2022/06/06 09:27:15;;;;;;;3.08;1.75;;;;;;;18.37;57.71;101363.75;5034636;28;20029;-81
2022/06/06 09:29:56;;;;;;;4.47;1.70;;;;;;;18.54;59.62;101353.13;5066565;28;20405;-80
2022/06/06 09:32:57;;;;;;;4.43;2.00;;;;;;;18.94;58.55;101352.56;5066100;28;20036;-80
2022/06/06 09:35:58;;;;;;;2.05;1.20;;;;;;;19.46;56.67;101356.16;5038301;28;20036;-81
2022/06/06 09:38:45;;;;;;;1.23;1.13;;;;;;;19.84;54.30;101351.22;5046410;28;20029;-81
2022/06/06 09:41:29;;;;;;;3.35;1.40;;;;;;;20.28;56.14;101337.41;5050526;28;20033;-81
2022/06/06 09:44:02;;;;;;;2.10;1.50;;;;;;;20.65;51.65;101346.84;5056931;28;20025;-80
2022/06/06 09:46:46;;;;;;;2.65;1.30;;;;;;;21.09;53.65;101335.59;5057584;28;20029;-81
2022/06/06 09:49:54;;;;;;;3.92;1.30;;;;;;;21.43;51.33;101335.25;5055522;28;20040;-82
2022/06/06 09:53:03;;;;;;;8.40;1.25;;;;;;;21.65;51.66;101340.91;5047314;28;20017;-81
2022/06/06 09:59:06;;;;;;;3.25;1.20;;;;;;;21.53;49.01;101332.38;5038493;28;20047;-81
2022/06/06 10:01:40;;;;;;;2.22;0.95;;;;;;;21.59;48.75;101328.09;5053116;28;20024;-80
2022/06/06 10:04:23;;;;;;;3.13;1.10;;;;;;;21.80;48.47;101319.38;5055739;28;20486;-81
2022/06/06 10:07:32;;;;;;;1.67;1.05;;;;;;;21.64;48.81;101322.16;5053773;28;20108;-81
2022/06/06 10:10:40;;;;;;;1.45;1.02;;;;;;;21.56;49.53;101323.88;5076091;28;20048;-80
2022/06/06 10:13:19;;;;;;;1.60;1.05;;;;;;;21.47;48.15;101329.47;5057068;28;20033;-81
2022/06/06 10:15:59;;;;;;;;;;;;;;;21.64;51.04;101325.72;5050790;28;20079;-81
2022/06/06 10:18:47;;;;;;;3.97;1.60;;;;;;;21.38;49.16;101317.88;5063402;28;20054;-81
2022/06/06 10:21:43;;;;;;;4.22;1.42;;;;;;;21.22;50.12;101324.22;5057720;28;20027;-80
2022/06/06 10:24:20;;;;;;;2.90;1.13;;;;;;;20.97;48.57;101323.50;5055095;28;20032;-79
2022/06/06 10:27:04;;;;;;;1.70;1.00;;;;;;;21.07;48.88;101324.13;5064368;28;20381;-80
2022/06/06 10:33:17;;;;;;;2.92;1.10;;;;;;;21.27;48.21;101311.03;5041554;28;20097;-80
2022/06/06 10:35:51;;;;;;;2.28;1.08;;;;;;;21.35;48.13;101307.44;5041726;28;20028;-79
2022/06/06 10:38:26;;;;;;;1.98;0.77;;;;;;;21.39;48.94;101316.88;5043990;28;20032;-80
2022/06/06 10:41:20;;;;;;;5.35;1.15;;;;;;;21.59;48.81;101323.53;5054217;28;20033;-80
2022/06/06 10:44:00;;;;;;;2.92;0.95;;;;;;;21.73;49.13;101329.19;5043720;28;20024;-79
2022/06/06 10:46:51;;;;;;;3.22;1.08;;;;;;;21.60;48.22;101327.09;5063028;28;20106;-80
2022/06/06 10:49:34;;;;;;;4.47;1.00;;;;;;;21.74;48.86;101315.50;5043126;28;20053;-81
2022/06/06 10:52:21;;;;;;;1.80;0.90;;;;;;;21.85;48.20;101318.78;5058026;28;20032;-79
2022/06/06 10:55:19;;;;;;;2.58;1.00;;;;;;;22.21;49.64;101313.59;5055290;28;20068;-80
2022/06/06 10:58:18;;;;;;;4.67;1.10;;;;;;;22.71;49.18;101303.16;5048018;28;20037;-81
2022/06/06 11:01:02;;;;;;;2.67;0.85;;;;;;;22.82;43.84;101313.53;5059207;28;20033;-80
2022/06/06 11:03:39;;;;;;;3.80;1.10;;;;;;;22.72;45.66;101305.69;5050772;28;20034;-80
2022/06/06 11:06:29;;;;;;;3.92;1.00;;;;;;;23.01;48.06;101322.09;5047791;28;20052;-81
2022/06/06 11:09:16;;;;;;;2.50;1.20;;;;;;;22.75;45.10;101299.06;5058745;28;20101;-80
2022/06/06 11:11:48;;;;;;;6.35;1.30;;;;;;;22.58;47.53;101298.38;5057568;28;20037;-79
2022/06/06 11:14:34;;;;;;;3.22;0.98;;;;;;;22.67;47.48;101296.44;5072844;28;20048;-80
2022/06/06 11:17:11;;;;;;;1.40;0.80;;;;;;;22.73;44.69;101291.13;5058584;28;20118;-80
2022/06/06 11:20:18;;;;;;;3.15;1.08;;;;;;;22.96;47.25;101292.03;5047175;28;20025;-80
2022/06/06 11:22:53;;;;;;;3.50;1.00;;;;;;;22.94;44.91;101284.09;5007069;28;20040;-81
2022/06/06 11:25:21;;;;;;;2.17;0.80;;;;;;;22.87;45.25;101275.03;5017302;28;20022;-80
2022/06/06 11:28:26;;;;;;;2.28;0.70;;;;;;;23.01;44.98;101284.19;5032910;28;20040;-77
2022/06/06 11:31:15;;;;;;;5.70;0.95;;;;;;;22.77;45.25;101277.22;5061519;28;20021;-78
2022/06/06 11:34:02;;;;;;;4.22;0.85;;;;;;;22.80;45.47;101276.81;5058457;28;20024;-77
2022/06/06 11:36:58;;;;;;;2.65;1.30;;;;;;;22.82;45.23;101274.78;5064777;28;20023;-79
2022/06/06 11:39:58;;;;;;;3.42;1.60;;;;;;;22.83;43.74;101273.72;5050537;28;20025;-79
2022/06/06 11:42:52;;;;;;;2.50;1.05;;;;;;;22.57;45.20;101276.94;5062405;28;20043;-80
2022/06/06 11:45:27;;;;;;;5.72;1.00;;;;;;;22.26;45.43;101286.00;5065797;28;20036;-80
2022/06/06 11:48:07;;;;;;;4.80;1.20;;;;;;;22.15;43.84;101287.31;5062966;28;20091;-79
2022/06/06 11:50:42;;;;;;;4.18;1.00;;;;;;;21.90;44.47;101295.63;5060289;28;20030;-81
2022/06/06 11:53:18;;;;;;;3.33;0.90;;;;;;;21.84;45.23;101293.63;5061700;28;20045;-80
2022/06/06 11:56:00;;;;;;;2.20;1.05;;;;;;;21.82;46.13;101290.28;5064148;28;20523;-80
2022/06/06 11:59:02;;;;;;;2.80;1.00;;;;;;;21.74;44.96;101290.34;5061266;28;20045;-81
2022/06/06 12:01:51;;;;;;;3.97;0.90;;;;;;;21.53;46.14;101285.56;5073922;28;20040;-79
2022/06/06 12:04:41;;;;;;;2.30;1.05;;;;;;;21.30;46.64;101283.66;5056927;28;20021;-80
2022/06/06 12:07:35;;;;;;;2.53;1.02;;;;;;;21.28;46.70;101285.69;5052441;28;20039;-80
2022/06/06 12:10:19;;;;;;;2.88;1.00;;;;;;;21.00;47.53;101288.00;5056984;28;20057;-80
2022/06/06 12:13:22;;;;;;;2.65;1.00;;;;;;;20.91;46.89;101287.22;5054345;28;20048;-79
2022/06/06 12:16:05;;;;;;;3.13;1.08;;;;;;;20.73;47.18;101294.69;5045982;28;20063;-80
2022/06/06 12:18:40;;;;;;;3.25;0.85;;;;;;;20.56;46.67;101291.19;5048507;28;20083;-81
2022/06/06 12:21:27;;;;;;;5.45;1.30;;;;;;;20.51;47.03;101286.28;5042704;28;20032;-80
2022/06/06 12:24:31;;;;;;;5.65;1.40;;;;;;;20.58;49.03;101295.38;5041834;28;20036;-80
2022/06/06 12:27:18;;;;;;;2.75;1.17;;;;;;;20.55;48.09;101282.25;5050448;28;20048;-80
2022/06/06 12:29:55;;;;;;;6.45;1.13;;;;;;;20.40;47.60;101284.81;5045094;28;20061;-80
2022/06/06 12:32:50;;;;;;;3.70;1.00;;;;;;;20.30;49.70;101286.81;5052917;28;20481;-80